createdAt,value
2018-07-19T00:02:15.016Z,17.10
2018-07-19T00:06:19.249Z,17.10
2018-07-19T00:10:23.533Z,17.00
2018-07-19T00:14:27.738Z,16.90
2018-07-19T00:18:31.938Z,16.80
2018-07-19T00:22:36.271Z,16.80
2018-07-19T00:26:40.465Z,16.70
2018-07-19T00:30:44.793Z,16.60
2018-07-19T00:34:49.019Z,16.60
2018-07-19T00:38:53.352Z,16.50
2018-07-19T00:42:57.656Z,16.40
2018-07-19T00:47:01.964Z,16.40
2018-07-19T00:51:06.379Z,16.30
2018-07-19T00:55:10.749Z,16.30
2018-07-19T00:59:15.265Z,16.20
2018-07-19T01:03:20.557Z,16.10
2018-07-19T01:07:24.784Z,16.10
2018-07-19T01:11:29.027Z,16.10
2018-07-19T01:15:34.372Z,16.10
2018-07-19T01:19:38.584Z,16.00
2018-07-19T01:23:42.799Z,16.00
2018-07-19T01:27:47.096Z,15.90
2018-07-19T01:31:51.328Z,15.90
2018-07-19T01:35:55.537Z,15.80
2018-07-19T01:39:59.867Z,15.70
2018-07-19T01:44:04.073Z,15.60
2018-07-19T01:48:08.288Z,15.50
2018-07-19T01:52:13.024Z,15.50
2018-07-19T01:56:17.249Z,15.50
2018-07-19T02:00:21.690Z,15.40
2018-07-19T02:04:25.917Z,15.30
2018-07-19T02:08:30.211Z,15.20
2018-07-19T02:12:34.452Z,15.10
2018-07-19T02:16:38.799Z,15.10
2018-07-19T02:20:43.036Z,14.90
2018-07-19T02:24:47.358Z,14.90
2018-07-19T02:28:51.728Z,14.80
2018-07-19T02:32:55.974Z,14.80
2018-07-19T02:37:00.192Z,14.70
2018-07-19T02:41:04.496Z,14.70
2018-07-19T02:45:08.734Z,14.60
2018-07-19T02:49:13.295Z,14.60
2018-07-19T02:53:17.596Z,14.50
2018-07-19T02:57:21.809Z,14.40
2018-07-19T03:01:26.130Z,14.30
2018-07-19T03:05:30.344Z,14.30
2018-07-19T03:09:34.560Z,14.20
2018-07-19T03:13:38.784Z,14.20
2018-07-19T03:17:43.167Z,14.20
2018-07-19T03:21:47.404Z,14.10
2018-07-19T03:25:51.642Z,14.10
2018-07-19T03:29:55.948Z,14.00
2018-07-19T03:34:00.196Z,14.00
2018-07-19T03:38:04.488Z,14.00
2018-07-19T03:42:08.881Z,13.90
2018-07-19T03:46:13.082Z,13.90
2018-07-19T03:50:17.401Z,13.90
2018-07-19T03:54:21.617Z,13.90
2018-07-19T03:58:25.972Z,13.90
2018-07-19T04:02:30.232Z,13.90
2018-07-19T04:06:34.423Z,13.90
2018-07-19T04:10:38.806Z,14.00
2018-07-19T04:14:43.087Z,13.90
2018-07-19T04:18:47.340Z,13.90
2018-07-19T04:22:51.824Z,14.00
2018-07-19T04:26:56.029Z,14.10
2018-07-19T04:31:00.357Z,14.10
2018-07-19T04:35:04.757Z,14.10
2018-07-19T04:39:09.893Z,14.20
2018-07-19T04:43:14.155Z,14.30
2018-07-19T04:47:18.397Z,14.40
2018-07-19T04:51:22.801Z,14.40
2018-07-19T04:55:27.133Z,14.50
2018-07-19T04:59:31.372Z,14.60
2018-07-19T05:03:36.765Z,14.70
2018-07-19T05:07:40.973Z,14.80
2018-07-19T05:11:45.219Z,14.90
2018-07-19T05:15:49.585Z,15.10
2018-07-19T05:19:53.840Z,15.20
2018-07-19T05:23:58.402Z,15.40
2018-07-19T05:28:02.760Z,15.60
2018-07-19T05:32:07.036Z,15.80
2018-07-19T05:36:11.460Z,16.00
2018-07-19T05:40:15.766Z,16.20
2018-07-19T05:44:20.091Z,16.50
2018-07-19T05:48:24.396Z,16.60
2018-07-19T05:52:28.612Z,16.80
2018-07-19T05:56:32.831Z,17.20
2018-07-19T06:00:37.153Z,17.40
2018-07-19T06:04:41.362Z,17.60
2018-07-19T06:08:45.864Z,17.80
2018-07-19T06:12:50.204Z,18.00
2018-07-19T06:16:54.432Z,18.20
2018-07-19T06:20:58.790Z,18.60
2018-07-19T06:25:03.195Z,18.70
2018-07-19T06:29:07.437Z,19.00
2018-07-19T06:33:16.491Z,19.40
2018-07-19T06:37:26.038Z,20.10
2018-07-19T06:41:31.650Z,20.30
2018-07-19T06:45:37.067Z,20.70
2018-07-19T06:49:46.701Z,20.80
2018-07-19T06:53:52.382Z,21.20
2018-07-19T06:57:59.781Z,21.30
2018-07-19T07:02:10.698Z,21.60
2018-07-19T07:06:18.579Z,21.70
2018-07-19T07:10:23.397Z,22.00
2018-07-19T07:14:27.869Z,22.20
2018-07-19T07:18:32.192Z,22.30
2018-07-19T07:22:36.578Z,22.50
2018-07-19T07:26:40.797Z,22.80
2018-07-19T07:30:45.166Z,22.80
2018-07-19T07:34:58.372Z,23.00
2018-07-19T07:39:02.684Z,23.10
2018-07-19T07:43:07.624Z,23.30
2018-07-19T07:47:12.047Z,23.30
2018-07-19T07:51:16.292Z,23.50
2018-07-19T07:55:20.746Z,23.70
2018-07-19T07:59:25.139Z,23.90
2018-07-19T08:03:33.904Z,24.10
2018-07-19T08:07:42.281Z,24.30
2018-07-19T08:11:51.439Z,24.40
2018-07-19T08:15:57.083Z,24.60
2018-07-19T08:20:01.472Z,24.80
2018-07-19T08:24:08.691Z,25.00
2018-07-19T08:28:32.489Z,25.30
2018-07-19T08:32:41.115Z,25.40
2018-07-19T08:36:49.832Z,25.50
2018-07-19T08:40:54.525Z,25.70
2018-07-19T08:44:58.781Z,25.90
2018-07-19T08:49:03.139Z,26.00
2018-07-19T08:53:07.463Z,26.40
2018-07-19T08:57:12.940Z,27.00
2018-07-19T09:01:17.406Z,27.80
2018-07-19T09:05:21.736Z,28.20
2018-07-19T09:09:25.967Z,28.90
2018-07-19T09:13:30.346Z,29.30
2018-07-19T09:17:34.645Z,29.80
2018-07-19T09:21:38.866Z,30.30
2018-07-19T09:25:43.061Z,29.90
2018-07-19T09:29:47.445Z,30.70
2018-07-19T09:33:51.708Z,31.80
2018-07-19T09:37:56.271Z,32.40
2018-07-19T09:42:00.521Z,32.10
2018-07-19T09:46:04.734Z,31.00
2018-07-19T09:50:08.957Z,31.40
2018-07-19T09:54:23.007Z,31.90
2018-07-19T09:58:27.189Z,31.50
2018-07-19T10:02:31.503Z,32.20
2018-07-19T10:06:35.762Z,31.50
2018-07-19T10:10:39.973Z,31.20
2018-07-19T10:14:44.232Z,31.70
2018-07-19T10:18:48.424Z,31.90
2018-07-19T10:22:52.732Z,32.70
2018-07-19T10:26:57.005Z,33.40
2018-07-19T10:31:01.224Z,33.40
2018-07-19T10:35:05.490Z,33.40
2018-07-19T10:39:10.620Z,31.80
2018-07-19T10:43:29.371Z,31.80
2018-07-19T10:47:33.596Z,32.40
2018-07-19T10:51:38.278Z,33.40
2018-07-19T10:55:42.482Z,34.50
2018-07-19T10:59:47.005Z,34.50
2018-07-19T11:03:51.200Z,33.50
2018-07-19T11:07:55.378Z,34.30
2018-07-19T11:12:00.602Z,34.40
2018-07-19T11:16:04.802Z,34.70
2018-07-19T11:20:08.962Z,35.20
2018-07-19T11:24:14.338Z,36.40
2018-07-19T11:28:18.528Z,36.10
2018-07-19T11:32:22.777Z,35.90
2018-07-19T11:36:26.972Z,36.50
2018-07-19T11:40:31.788Z,36.60
2018-07-19T11:44:36.030Z,36.40
2018-07-19T11:48:40.202Z,37.20
2018-07-19T11:52:44.417Z,37.30
2018-07-19T11:56:48.698Z,36.80
2018-07-19T12:00:52.995Z,37.10
2018-07-19T12:04:57.221Z,36.10
2018-07-19T12:09:01.501Z,36.50
2018-07-19T12:13:05.676Z,37.80
2018-07-19T12:17:10.001Z,36.70
2018-07-19T12:21:14.200Z,38.20
2018-07-19T12:25:18.393Z,38.60
2018-07-19T12:29:22.663Z,38.60
2018-07-19T12:33:26.923Z,37.10
2018-07-19T12:37:31.133Z,37.00
2018-07-19T12:41:35.242Z,38.60
2018-07-19T12:45:39.889Z,37.80
2018-07-19T12:49:44.067Z,38.60
2018-07-19T12:53:48.306Z,38.70
2018-07-19T12:57:52.445Z,38.30
2018-07-19T13:01:56.628Z,39.10
2018-07-19T13:06:00.887Z,40.00
2018-07-19T13:10:07.068Z,40.40
2018-07-19T13:14:12.041Z,39.70
2018-07-19T13:18:16.562Z,38.20
2018-07-19T13:22:20.803Z,39.60
2018-07-19T13:26:25.341Z,39.70
2018-07-19T13:30:29.519Z,39.60
2018-07-19T13:34:33.893Z,38.60
2018-07-19T13:38:38.087Z,37.20
2018-07-19T13:42:42.275Z,39.50
2018-07-19T13:46:46.570Z,40.40
2018-07-19T13:50:50.873Z,40.40
2018-07-19T13:54:55.010Z,40.50
2018-07-19T13:58:59.285Z,40.60
2018-07-19T14:03:03.436Z,41.40
2018-07-19T14:07:07.694Z,41.90
2018-07-19T14:11:11.824Z,41.70
2018-07-19T14:15:15.961Z,41.00
2018-07-19T14:19:24.414Z,41.50
2018-07-19T14:23:28.522Z,40.60
2018-07-19T14:27:32.610Z,40.30
2018-07-19T14:31:36.855Z,40.60
2018-07-19T14:35:41.107Z,40.60
2018-07-19T14:39:45.376Z,40.00
2018-07-19T14:43:49.537Z,41.00
2018-07-19T14:47:54.073Z,41.40
2018-07-19T14:51:58.396Z,40.60
2018-07-19T14:56:02.521Z,41.10
2018-07-19T15:00:07.359Z,40.30
2018-07-19T15:04:11.542Z,40.60
2018-07-19T15:08:15.701Z,40.60
2018-07-19T15:12:19.891Z,40.90
2018-07-19T15:16:24.311Z,39.90
2018-07-19T15:20:28.477Z,40.80
2018-07-19T15:24:32.724Z,40.10
2018-07-19T15:28:36.856Z,39.60
2018-07-19T15:32:41.016Z,39.80
2018-07-19T15:36:45.375Z,39.40
2018-07-19T15:40:49.572Z,38.80
2018-07-19T15:44:53.774Z,38.20
2018-07-19T15:48:58.095Z,38.40
2018-07-19T15:53:02.236Z,38.50
2018-07-19T15:57:06.500Z,38.30
2018-07-19T16:01:10.809Z,37.50
2018-07-19T16:05:15.024Z,37.90
2018-07-19T16:09:19.400Z,37.90
2018-07-19T16:13:23.687Z,37.90
2018-07-19T16:17:27.879Z,37.70
2018-07-19T16:21:32.052Z,38.00
2018-07-19T16:25:36.509Z,37.10
2018-07-19T16:29:40.661Z,36.00
2018-07-19T16:33:44.992Z,34.00
2018-07-19T16:37:49.424Z,32.40
2018-07-19T16:41:53.572Z,31.40
2018-07-19T16:45:58.007Z,30.60
2018-07-19T16:50:02.235Z,30.10
2018-07-19T16:54:06.817Z,29.60
2018-07-19T16:58:11.375Z,29.20
2018-07-19T17:02:15.552Z,28.90
2018-07-19T17:06:20.098Z,28.60
2018-07-19T17:10:24.810Z,28.30
2018-07-19T17:14:29.041Z,27.90
2018-07-19T17:18:36.265Z,27.90
2018-07-19T17:22:40.780Z,27.80
2018-07-19T17:26:45.264Z,27.10
2018-07-19T17:30:49.847Z,26.70
2018-07-19T17:34:54.307Z,25.90
2018-07-19T17:38:58.972Z,25.80
2018-07-19T17:43:03.552Z,25.70
2018-07-19T17:47:07.894Z,25.40
2018-07-19T17:51:15.583Z,25.00
2018-07-19T17:55:20.863Z,24.80
2018-07-19T17:59:29.752Z,24.70
2018-07-19T18:03:34.592Z,24.30
2018-07-19T18:07:39.031Z,24.10
2018-07-19T18:11:43.592Z,24.00
2018-07-19T18:15:48.452Z,23.80
2018-07-19T18:19:53.569Z,23.50
2018-07-19T18:23:58.110Z,23.50
2018-07-19T18:28:03.187Z,23.20
2018-07-19T18:32:07.665Z,22.80
2018-07-19T18:36:12.357Z,22.80
2018-07-19T18:40:16.891Z,22.40
2018-07-19T18:44:25.472Z,22.00
2018-07-19T18:48:30.548Z,21.70
2018-07-19T18:52:35.368Z,21.50
2018-07-19T18:56:39.961Z,21.30
2018-07-19T19:00:44.946Z,21.00
2018-07-19T19:04:49.824Z,20.80
2018-07-19T19:08:54.572Z,20.70
2018-07-19T19:12:59.293Z,20.40
2018-07-19T19:17:04.050Z,20.20
2018-07-19T19:21:08.833Z,20.00
2018-07-19T19:25:13.334Z,19.90
2018-07-19T19:29:17.818Z,19.90
2018-07-19T19:33:23.195Z,19.60
2018-07-19T19:37:27.628Z,19.30
2018-07-19T19:41:32.311Z,19.20
2018-07-19T19:45:36.798Z,19.20
2018-07-19T19:49:41.299Z,19.00
2018-07-19T19:53:46.049Z,18.80
2018-07-19T19:57:50.446Z,18.70
2018-07-19T20:01:54.889Z,18.60
2018-07-19T20:05:59.486Z,18.50
2018-07-19T20:10:04.077Z,18.50
2018-07-19T20:14:08.778Z,18.40
2018-07-19T20:18:13.125Z,18.20
2018-07-19T20:22:18.162Z,18.10
2018-07-19T20:26:22.571Z,18.10
2018-07-19T20:30:27.053Z,17.90
2018-07-19T20:34:31.447Z,17.70
2018-07-19T20:38:36.722Z,17.70
2018-07-19T20:42:41.085Z,17.60
2018-07-19T20:46:45.354Z,17.60
2018-07-19T20:50:49.789Z,17.40
2018-07-19T20:54:54.092Z,17.30
2018-07-19T20:58:58.357Z,17.30
2018-07-19T21:03:02.845Z,17.20
2018-07-19T21:07:07.235Z,17.10
2018-07-19T21:11:11.594Z,17.20
2018-07-19T21:15:15.837Z,17.00
2018-07-19T21:19:20.090Z,16.90
2018-07-19T21:23:24.311Z,16.90
2018-07-19T21:27:28.715Z,16.80
2018-07-19T21:31:32.985Z,16.80
2018-07-19T21:35:37.255Z,16.70
2018-07-19T21:39:41.566Z,16.50
2018-07-19T21:43:45.874Z,16.60
2018-07-19T21:47:50.321Z,16.70
2018-07-19T21:51:54.826Z,16.60
2018-07-19T21:55:59.169Z,16.50
2018-07-19T22:00:03.431Z,16.40
2018-07-19T22:04:07.607Z,16.30
2018-07-19T22:08:11.844Z,16.30
2018-07-19T22:12:16.124Z,16.20
2018-07-19T22:16:20.351Z,16.20
2018-07-19T22:20:24.702Z,16.10
2018-07-19T22:24:29.316Z,16.10
2018-07-19T22:28:33.555Z,16.00
2018-07-19T22:32:37.848Z,15.80
2018-07-19T22:36:42.181Z,15.80
2018-07-19T22:40:46.498Z,15.70
2018-07-19T22:44:50.829Z,15.70
2018-07-19T22:48:56.296Z,15.60
2018-07-19T22:53:00.507Z,15.60
2018-07-19T22:57:04.865Z,15.50
2018-07-19T23:01:09.542Z,15.50
2018-07-19T23:05:13.972Z,15.60
2018-07-19T23:09:18.200Z,15.40
2018-07-19T23:13:22.388Z,15.30
2018-07-19T23:17:26.800Z,15.20
2018-07-19T23:21:31.215Z,15.20
2018-07-19T23:25:35.439Z,15.10
2018-07-19T23:29:39.964Z,15.00
2018-07-19T23:33:44.243Z,15.00
2018-07-19T23:37:50.443Z,15.00
2018-07-19T23:41:58.879Z,14.90
2018-07-19T23:46:08.372Z,14.80
2018-07-19T23:50:12.636Z,14.70
2018-07-19T23:54:16.995Z,14.70
2018-07-19T23:58:21.200Z,14.60
